Time;durP1;ratioP1;P1;durP2;ratioP2;P2;SDS_P1;SDS_P2;PMS_P1;PMS_P2;Temp;Humidity;BMP_temperature;BMP_pressure;BME280_temperature;BME280_humidity;BME280_pressure;Samples;Min_cycle;Max_cycle;Signal;HPM_P1;HPM_P2
2024/01/02 00:02:10;;;;;;;0.40;0.40;;;;;;;;;;4994601;28;20500;-84
2024/01/02 00:04:38;;;;;;;0.55;0.55;;;;;;;;;;5003245;28;20081;-83
2024/01/02 00:07:05;;;;;;;3.70;0.65;;;;;;;;;;5003115;28;20042;-84
2024/01/02 00:09:33;;;;;;;0.50;0.50;;;;;;;;;;5006848;28;20583;-84
2024/01/02 00:12:01;;;;;;;0.85;0.20;;;;;;;;;;4990959;28;20420;-84
2024/01/02 00:14:29;;;;;;;0.10;0.10;;;;;;;;;;5009123;28;20144;-84
2024/01/02 00:16:56;;;;;;;1.90;0.82;;;;;;;;;;4992385;28;20072;-84
2024/01/02 00:19:24;;;;;;;0.32;0.32;;;;;;;;;;5004505;28;20076;-83
2024/01/02 00:21:52;;;;;;;0.47;0.47;;;;;;;;;;5003878;28;20046;-84
2024/01/02 00:24:20;;;;;;;0.73;0.73;;;;;;;;;;5002720;28;20499;-84
2024/01/02 00:26:48;;;;;;;0.63;0.63;;;;;;;;;;5001218;28;20651;-83
2024/01/02 00:29:15;;;;;;;0.57;0.52;;;;;;;;;;4996269;28;20053;-84
2024/01/02 00:31:44;;;;;;;0.10;0.10;;;;;;;;;;5002325;28;20046;-84
2024/01/02 00:34:13;;;;;;;1.75;1.65;;;;;;;;;;5008544;28;20046;-84
2024/01/02 00:36:41;;;;;;;0.17;0.17;;;;;;;;;;5002332;28;20052;-84
2024/01/02 00:39:08;;;;;;;0.10;0.10;;;;;;;;;;5004907;28;20050;-84
2024/01/02 00:41:36;;;;;;;0.80;0.68;;;;;;;;;;5004350;28;20099;-83
2024/01/02 00:44:04;;;;;;;3.50;1.13;;;;;;;;;;5007107;28;20054;-83
2024/01/02 00:46:32;;;;;;;0.35;0.35;;;;;;;;;;5008601;28;20060;-84
2024/01/02 00:49:00;;;;;;;0.50;0.50;;;;;;;;;;5003692;28;20048;-84
2024/01/02 00:51:28;;;;;;;0.90;0.88;;;;;;;;;;4998182;28;20500;-84
2024/01/02 00:53:55;;;;;;;0.10;0.10;;;;;;;;;;5005840;28;20054;-84
2024/01/02 00:56:23;;;;;;;0.10;0.10;;;;;;;;;;5007078;28;20042;-84
2024/01/02 00:58:51;;;;;;;0.65;0.65;;;;;;;;;;5001548;28;20062;-84
2024/01/02 01:01:19;;;;;;;1.30;1.23;;;;;;;;;;5002246;28;20132;-84
2024/01/02 01:03:46;;;;;;;0.63;0.63;;;;;;;;;;4999731;28;20073;-84
2024/01/02 01:06:14;;;;;;;0.30;0.30;;;;;;;;;;5009436;28;20085;-84
2024/01/02 01:08:42;;;;;;;0.10;0.10;;;;;;;;;;5005382;28;20068;-84
2024/01/02 01:11:09;;;;;;;0.05;0.05;;;;;;;;;;5004823;28;20133;-84
2024/01/02 01:13:37;;;;;;;0.85;0.85;;;;;;;;;;5002252;28;20095;-84
2024/01/02 01:16:05;;;;;;;0.25;0.25;;;;;;;;;;4992496;28;20129;-84
2024/01/02 01:18:32;;;;;;;0.82;0.82;;;;;;;;;;5001687;28;20053;-83
2024/01/02 01:21:00;;;;;;;0.40;0.40;;;;;;;;;;5001638;28;20046;-83
2024/01/02 01:23:28;;;;;;;0.60;0.60;;;;;;;;;;5002508;28;20050;-83
2024/01/02 01:25:56;;;;;;;0.10;0.10;;;;;;;;;;4999175;28;20050;-83
2024/01/02 01:28:23;;;;;;;0.60;0.32;;;;;;;;;;5004088;28;28931;-83
2024/01/02 01:30:51;;;;;;;0.85;0.70;;;;;;;;;;5000622;28;20419;-83
2024/01/02 01:33:19;;;;;;;0.20;0.20;;;;;;;;;;5002105;28;20188;-84
2024/01/02 01:35:46;;;;;;;0.10;0.10;;;;;;;;;;5003678;28;20164;-84
2024/01/02 01:38:14;;;;;;;0.98;0.40;;;;;;;;;;5002771;28;20053;-84
2024/01/02 01:40:42;;;;;;;0.65;0.65;;;;;;;;;;4989041;28;20056;-83
2024/01/02 01:43:13;;;;;;;0.43;0.43;;;;;;;;;;5004068;28;20061;-83
2024/01/02 01:45:41;;;;;;;8.70;1.30;;;;;;;;;;4997113;28;20074;-84
2024/01/02 01:48:09;;;;;;;1.35;0.25;;;;;;;;;;4995708;28;20057;-83
2024/01/02 01:50:38;;;;;;;1.65;1.10;;;;;;;;;;4995702;28;20129;-84
2024/01/02 01:53:07;;;;;;;0.60;0.60;;;;;;;;;;5001521;28;20045;-83
2024/01/02 01:55:35;;;;;;;0.30;0.30;;;;;;;;;;5000644;28;20109;-83
2024/01/02 01:58:03;;;;;;;0.40;0.40;;;;;;;;;;5003330;28;20041;-84
2024/01/02 02:00:31;;;;;;;0.22;0.22;;;;;;;;;;4999346;28;20162;-84
2024/01/02 02:02:59;;;;;;;1.45;1.10;;;;;;;;;;5004265;28;20056;-84
2024/01/02 02:05:26;;;;;;;1.35;0.52;;;;;;;;;;5001170;28;20091;-84
2024/01/02 02:07:55;;;;;;;0.45;0.45;;;;;;;;;;5007629;28;20054;-83
2024/01/02 02:10:23;;;;;;;0.30;0.30;;;;;;;;;;5003978;28;20054;-83
2024/01/02 02:12:51;;;;;;;0.68;0.68;;;;;;;;;;5000108;28;20050;-83
2024/01/02 02:15:19;;;;;;;5.68;1.20;;;;;;;;;;5003124;28;20049;-83
2024/01/02 02:17:46;;;;;;;0.68;0.68;;;;;;;;;;4981894;28;20046;-84
2024/01/02 02:20:14;;;;;;;1.33;1.23;;;;;;;;;;5001972;28;20042;-83
2024/01/02 02:22:52;;;;;;;1.02;0.52;;;;;;;;;;5000348;28;20498;-83
2024/01/02 02:25:20;;;;;;;1.55;1.20;;;;;;;;;;4999130;28;20046;-83
2024/01/02 02:27:47;;;;;;;0.35;0.35;;;;;;;;;;5004568;28;20081;-83
2024/01/02 02:30:15;;;;;;;0.20;0.20;;;;;;;;;;4997792;28;21564;-83
2024/01/02 02:32:43;;;;;;;4.57;2.40;;;;;;;;;;5007636;28;20053;-83
2024/01/02 02:35:11;;;;;;;0.60;0.60;;;;;;;;;;5009510;28;20120;-83
2024/01/02 02:37:38;;;;;;;0.30;0.30;;;;;;;;;;5005943;28;20073;-83
2024/01/02 02:40:06;;;;;;;2.63;1.05;;;;;;;;;;5008699;28;20046;-84
2024/01/02 02:42:34;;;;;;;1.23;1.13;;;;;;;;;;5005629;28;20144;-84
2024/01/02 02:45:03;;;;;;;0.75;0.75;;;;;;;;;;5004034;28;20042;-84
2024/01/02 02:47:31;;;;;;;0.25;0.25;;;;;;;;;;4999429;28;20082;-83
2024/01/02 02:49:59;;;;;;;0.20;0.20;;;;;;;;;;5011017;28;20054;-83
2024/01/02 02:52:27;;;;;;;0.80;0.80;;;;;;;;;;4999798;28;20101;-84
2024/01/02 02:54:54;;;;;;;3.50;1.58;;;;;;;;;;5000380;28;20057;-84
2024/01/02 02:57:22;;;;;;;1.95;1.17;;;;;;;;;;5000651;28;20092;-84
2024/01/02 02:59:49;;;;;;;1.38;1.33;;;;;;;;;;4999063;28;20061;-83
2024/01/02 03:02:17;;;;;;;0.50;0.50;;;;;;;;;;4996571;28;20055;-83
2024/01/02 03:04:45;;;;;;;0.52;0.52;;;;;;;;;;5011747;28;20034;-83
2024/01/02 03:07:13;;;;;;;5.93;1.65;;;;;;;;;;5004296;28;20555;-84
2024/01/02 03:09:44;;;;;;;0.20;0.20;;;;;;;;;;5003324;28;20061;-84
2024/01/02 03:12:15;;;;;;;0.13;0.13;;;;;;;;;;5001947;28;20050;-84
2024/01/02 03:14:42;;;;;;;0.73;0.73;;;;;;;;;;5001880;28;20093;-84
2024/01/02 03:17:10;;;;;;;0.20;0.20;;;;;;;;;;5002317;28;20046;-84
2024/01/02 03:19:37;;;;;;;0.38;0.38;;;;;;;;;;5000208;28;20053;-83
2024/01/02 03:22:05;;;;;;;1.17;1.10;;;;;;;;;;4993721;28;20051;-84
2024/01/02 03:24:32;;;;;;;0.35;0.35;;;;;;;;;;5000005;28;20044;-84
2024/01/02 03:27:00;;;;;;;0.20;0.20;;;;;;;;;;5007104;28;20045;-83
2024/01/02 03:29:28;;;;;;;0.28;0.28;;;;;;;;;;5007726;28;20042;-83
2024/01/02 03:31:55;;;;;;;0.10;0.10;;;;;;;;;;5000021;28;26137;-83
2024/01/02 03:34:23;;;;;;;0.10;0.10;;;;;;;;;;5006908;28;20593;-84
2024/01/02 03:36:51;;;;;;;0.10;0.10;;;;;;;;;;5004711;28;20056;-83
2024/01/02 03:39:18;;;;;;;6.32;0.47;;;;;;;;;;4999813;28;20076;-83
2024/01/02 03:41:46;;;;;;;0.28;0.28;;;;;;;;;;5024757;28;20082;-84
2024/01/02 03:44:13;;;;;;;0.30;0.30;;;;;;;;;;5018040;28;20136;-84
2024/01/02 03:46:41;;;;;;;0.10;0.10;;;;;;;;;;5003382;28;20504;-83
2024/01/02 03:49:08;;;;;;;0.50;0.50;;;;;;;;;;5003505;28;20567;-84
2024/01/02 03:51:37;;;;;;;0.20;0.20;;;;;;;;;;5001637;28;20046;-84
2024/01/02 03:54:04;;;;;;;0.10;0.10;;;;;;;;;;5005155;28;20145;-84
2024/01/02 03:56:32;;;;;;;1.55;0.60;;;;;;;;;;5000302;28;20511;-83
2024/01/02 03:59:00;;;;;;;0.57;0.57;;;;;;;;;;5004373;28;20601;-84
2024/01/02 04:01:27;;;;;;;0.52;0.52;;;;;;;;;;5001856;28;20095;-83
2024/01/02 04:03:55;;;;;;;0.10;0.10;;;;;;;;;;5005145;28;20152;-83
2024/01/02 04:06:22;;;;;;;0.82;0.80;;;;;;;;;;5006909;28;20050;-84
2024/01/02 04:08:50;;;;;;;1.05;0.95;;;;;;;;;;5005332;28;20512;-83
2024/01/02 04:11:18;;;;;;;4.97;4.50;;;;;;;;;;5002111;28;20056;-83
2024/01/02 04:13:45;;;;;;;1.13;1.10;;;;;;;;;;5001790;28;20403;-83
2024/01/02 04:16:13;;;;;;;0.65;0.65;;;;;;;;;;5002163;28;20053;-85
2024/01/02 04:18:41;;;;;;;0.15;0.15;;;;;;;;;;5003633;28;20153;-83
2024/01/02 04:21:09;;;;;;;0.95;0.95;;;;;;;;;;5009817;28;20053;-84
2024/01/02 04:23:37;;;;;;;2.10;1.75;;;;;;;;;;5003845;28;20137;-83
2024/01/02 04:26:05;;;;;;;0.65;0.52;;;;;;;;;;5003056;28;20669;-83
2024/01/02 04:28:32;;;;;;;0.10;0.10;;;;;;;;;;4999363;28;20045;-84
2024/01/02 04:31:00;;;;;;;0.25;0.25;;;;;;;;;;5004058;28;20073;-84
2024/01/02 04:33:28;;;;;;;1.00;1.00;;;;;;;;;;5001992;28;20192;-83
2024/01/02 04:35:55;;;;;;;1.70;0.90;;;;;;;;;;5004015;28;20132;-83
2024/01/02 04:38:23;;;;;;;0.10;0.10;;;;;;;;;;5004229;28;20050;-83
2024/01/02 04:40:50;;;;;;;0.47;0.20;;;;;;;;;;5007272;28;20508;-83
2024/01/02 04:43:18;;;;;;;0.35;0.35;;;;;;;;;;5003623;28;20100;-83
2024/01/02 04:45:46;;;;;;;0.10;0.10;;;;;;;;;;5001374;28;20042;-83
2024/01/02 04:48:13;;;;;;;0.60;0.60;;;;;;;;;;5013278;28;20129;-83
2024/01/02 04:50:41;;;;;;;0.10;0.10;;;;;;;;;;5000567;28;20034;-82
2024/01/02 04:53:09;;;;;;;1.85;1.65;;;;;;;;;;4997686;28;20123;-81
2024/01/02 04:55:36;;;;;;;0.50;0.50;;;;;;;;;;5004741;28;20504;-81
2024/01/02 04:58:04;;;;;;;1.65;1.38;;;;;;;;;;5004849;28;20042;-81
2024/01/02 05:00:33;;;;;;;0.20;0.20;;;;;;;;;;5007754;28;20081;-80
2024/01/02 05:03:01;;;;;;;0.10;0.10;;;;;;;;;;5010661;28;20065;-81
2024/01/02 05:05:29;;;;;;;0.08;0.08;;;;;;;;;;5010327;28;20117;-83
2024/01/02 05:07:58;;;;;;;1.30;1.23;;;;;;;;;;5012060;28;20046;-82
2024/01/02 05:10:26;;;;;;;0.13;0.13;;;;;;;;;;5023121;28;20077;-83
2024/01/02 05:12:53;;;;;;;1.80;1.65;;;;;;;;;;5012324;28;20046;-83
2024/01/02 05:15:21;;;;;;;0.35;0.35;;;;;;;;;;5011644;28;20054;-83
2024/01/02 05:17:49;;;;;;;0.65;0.52;;;;;;;;;;5014009;28;20077;-85
2024/01/02 05:20:17;;;;;;;0.30;0.30;;;;;;;;;;5006472;28;20041;-83
2024/01/02 05:22:44;;;;;;;0.45;0.45;;;;;;;;;;5009513;28;20428;-84
2024/01/02 05:25:12;;;;;;;0.10;0.10;;;;;;;;;;5011089;28;20066;-84
2024/01/02 05:27:40;;;;;;;0.20;0.20;;;;;;;;;;5011710;28;20471;-85
2024/01/02 05:30:08;;;;;;;0.40;0.40;;;;;;;;;;5007370;28;24441;-84
2024/01/02 05:32:36;;;;;;;0.73;0.57;;;;;;;;;;5009494;28;21750;-84
2024/01/02 05:35:03;;;;;;;0.43;0.43;;;;;;;;;;5012367;28;20129;-83
2024/01/02 05:37:31;;;;;;;0.30;0.30;;;;;;;;;;5006524;28;20054;-83
2024/01/02 05:39:59;;;;;;;0.28;0.28;;;;;;;;;;5015405;28;20065;-83
2024/01/02 05:42:26;;;;;;;0.10;0.10;;;;;;;;;;5009120;28;20108;-83
2024/01/02 05:44:54;;;;;;;0.10;0.10;;;;;;;;;;5006160;28;20050;-84
2024/01/02 05:47:21;;;;;;;0.10;0.10;;;;;;;;;;5006038;28;20045;-83
2024/01/02 05:49:49;;;;;;;0.30;0.30;;;;;;;;;;5002392;28;20108;-83
2024/01/02 05:52:17;;;;;;;0.10;0.10;;;;;;;;;;5008055;28;20464;-84
2024/01/02 05:54:45;;;;;;;0.50;0.50;;;;;;;;;;4997949;28;20054;-84
2024/01/02 05:57:12;;;;;;;0.50;0.50;;;;;;;;;;5004136;28;20060;-84
2024/01/02 05:59:40;;;;;;;0.10;0.10;;;;;;;;;;5005960;28;20062;-84
2024/01/02 06:02:08;;;;;;;0.10;0.10;;;;;;;;;;5003020;28;20244;-83
2024/01/02 06:04:36;;;;;;;0.17;0.17;;;;;;;;;;5008554;28;20050;-85
2024/01/02 06:07:03;;;;;;;0.32;0.32;;;;;;;;;;5004891;28;20625;-84
2024/01/02 06:09:31;;;;;;;0.50;0.50;;;;;;;;;;5010516;28;20124;-83
2024/01/02 06:11:58;;;;;;;0.10;0.10;;;;;;;;;;5002824;28;20174;-84
2024/01/02 06:14:26;;;;;;;0.40;0.40;;;;;;;;;;5001332;28;20388;-84
2024/01/02 06:16:54;;;;;;;0.40;0.40;;;;;;;;;;5005032;28;20164;-80
2024/01/02 06:19:21;;;;;;;0.10;0.10;;;;;;;;;;5005403;28;20069;-83
2024/01/02 06:21:49;;;;;;;0.20;0.20;;;;;;;;;;5004294;28;20082;-82
2024/01/02 06:24:17;;;;;;;1.00;1.00;;;;;;;;;;5009856;28;20050;-81
2024/01/02 06:26:44;;;;;;;1.33;0.85;;;;;;;;;;5005027;28;20117;-80
2024/01/02 06:29:12;;;;;;;0.20;0.20;;;;;;;;;;5011168;28;20033;-84
2024/01/02 06:31:40;;;;;;;0.20;0.20;;;;;;;;;;5010011;28;20041;-83
2024/01/02 06:34:08;;;;;;;0.45;0.43;;;;;;;;;;5006201;28;20046;-84
2024/01/02 06:36:37;;;;;;;0.00;0.00;;;;;;;;;;5014619;28;20042;-84
2024/01/02 06:39:05;;;;;;;1.05;1.02;;;;;;;;;;5017949;28;20076;-83
2024/01/02 06:41:32;;;;;;;0.30;0.30;;;;;;;;;;5010968;28;20093;-80
2024/01/02 06:44:00;;;;;;;0.10;0.10;;;;;;;;;;5003828;28;20444;-84
2024/01/02 06:46:28;;;;;;;3.30;0.70;;;;;;;;;;4994139;28;20046;-84
2024/01/02 06:48:56;;;;;;;0.22;0.22;;;;;;;;;;5019635;28;20043;-84
2024/01/02 06:51:23;;;;;;;0.30;0.30;;;;;;;;;;5003800;28;20100;-81
2024/01/02 06:53:53;;;;;;;1.20;1.10;;;;;;;;;;5009094;28;20062;-83
2024/01/02 06:56:20;;;;;;;0.10;0.10;;;;;;;;;;5009697;28;20220;-83
2024/01/02 06:58:55;;;;;;;0.30;0.30;;;;;;;;;;5007298;28;20120;-83
2024/01/02 07:01:31;;;;;;;0.63;0.63;;;;;;;;;;5006509;28;20053;-83
2024/01/02 07:03:59;;;;;;;0.10;0.10;;;;;;;;;;5011188;28;20069;-83
2024/01/02 07:06:52;;;;;;;2.15;2.05;;;;;;;;;;5006307;28;20096;-83
2024/01/02 07:09:26;;;;;;;0.88;0.82;;;;;;;;;;5006587;28;20635;-84
2024/01/02 07:11:54;;;;;;;0.22;0.22;;;;;;;;;;5001966;28;20416;-83
2024/01/02 07:14:23;;;;;;;0.20;0.20;;;;;;;;;;5007038;28;20056;-85
2024/01/02 07:16:50;;;;;;;0.10;0.10;;;;;;;;;;5011585;28;20111;-83
2024/01/02 07:19:19;;;;;;;0.85;0.38;;;;;;;;;;5007786;28;20065;-84
2024/01/02 07:21:48;;;;;;;0.10;0.10;;;;;;;;;;5009339;28;20057;-82
2024/01/02 07:24:18;;;;;;;0.20;0.20;;;;;;;;;;5002730;28;20112;-82
2024/01/02 07:26:46;;;;;;;0.40;0.40;;;;;;;;;;5010519;28;20112;-84
2024/01/02 07:29:16;;;;;;;1.00;0.98;;;;;;;;;;5009953;28;20493;-83
2024/01/02 07:31:44;;;;;;;0.17;0.17;;;;;;;;;;4998583;28;20085;-82
2024/01/02 07:34:13;;;;;;;0.13;0.13;;;;;;;;;;5007284;28;20118;-83
2024/01/02 07:36:41;;;;;;;1.95;0.50;;;;;;;;;;5006599;28;20054;-83
2024/01/02 07:39:09;;;;;;;0.43;0.43;;;;;;;;;;5008227;28;20108;-82
2024/01/02 07:41:37;;;;;;;0.28;0.28;;;;;;;;;;4991362;28;20566;-85
2024/01/02 07:44:06;;;;;;;0.40;0.40;;;;;;;;;;5005545;28;20320;-82
2024/01/02 07:46:34;;;;;;;3.60;0.47;;;;;;;;;;4996376;28;20057;-82
2024/01/02 07:49:02;;;;;;;0.10;0.10;;;;;;;;;;5003660;28;20503;-84
2024/01/02 07:51:30;;;;;;;2.67;2.55;;;;;;;;;;5008368;28;20057;-85
2024/01/02 07:53:57;;;;;;;0.43;0.38;;;;;;;;;;5006837;28;20129;-86
2024/01/02 07:56:26;;;;;;;1.23;0.73;;;;;;;;;;5000337;28;20054;-85
2024/01/02 07:58:56;;;;;;;3.60;1.85;;;;;;;;;;5003229;28;20052;-84
2024/01/02 08:01:24;;;;;;;0.08;0.08;;;;;;;;;;5009022;28;20074;-84
2024/01/02 08:03:51;;;;;;;0.40;0.40;;;;;;;;;;5008835;28;20053;-84
2024/01/02 08:06:19;;;;;;;0.50;0.50;;;;;;;;;;5008416;28;20511;-83
2024/01/02 08:08:47;;;;;;;0.15;0.15;;;;;;;;;;5013919;28;20072;-84
2024/01/02 08:11:18;;;;;;;1.75;1.65;;;;;;;;;;5013359;28;20232;-82
2024/01/02 08:13:45;;;;;;;1.02;1.00;;;;;;;;;;5006647;28;20470;-82
2024/01/02 08:16:13;;;;;;;2.70;2.42;;;;;;;;;;5007510;28;20062;-84
2024/01/02 08:18:41;;;;;;;0.60;0.55;;;;;;;;;;5005943;28;20124;-81
2024/01/02 08:21:10;;;;;;;0.40;0.40;;;;;;;;;;5009027;28;20475;-82
2024/01/02 08:23:40;;;;;;;2.55;2.05;;;;;;;;;;5000789;28;20046;-83
2024/01/02 08:26:12;;;;;;;0.40;0.40;;;;;;;;;;5002408;28;20354;-82
2024/01/02 08:28:41;;;;;;;0.32;0.30;;;;;;;;;;4994111;28;20050;-83
2024/01/02 08:31:09;;;;;;;0.10;0.10;;;;;;;;;;4997660;28;20072;-83
2024/01/02 08:33:37;;;;;;;0.30;0.28;;;;;;;;;;5007876;28;20044;-85
2024/01/02 08:36:06;;;;;;;0.30;0.30;;;;;;;;;;4999585;28;20508;-84
2024/01/02 08:38:35;;;;;;;0.35;0.35;;;;;;;;;;5001208;28;20054;-82
2024/01/02 08:41:03;;;;;;;0.45;0.45;;;;;;;;;;5006204;28;20092;-81
2024/01/02 08:43:30;;;;;;;0.20;0.20;;;;;;;;;;5003121;28;20060;-82
2024/01/02 08:45:58;;;;;;;0.30;0.30;;;;;;;;;;5000020;28;20054;-82
2024/01/02 08:48:26;;;;;;;2.95;0.60;;;;;;;;;;4988016;28;20054;-82
2024/01/02 08:50:53;;;;;;;0.88;0.88;;;;;;;;;;4993528;28;20045;-82
2024/01/02 08:53:21;;;;;;;1.35;1.23;;;;;;;;;;4998921;28;20058;-83
2024/01/02 08:55:49;;;;;;;0.30;0.30;;;;;;;;;;4993431;28;20038;-83
2024/01/02 08:58:17;;;;;;;5.22;1.95;;;;;;;;;;4993861;28;20046;-82
2024/01/02 09:00:44;;;;;;;0.60;0.40;;;;;;;;;;4993118;28;20054;-83
2024/01/02 09:03:12;;;;;;;1.83;1.73;;;;;;;;;;4998219;28;20073;-83
2024/01/02 09:05:42;;;;;;;1.70;0.80;;;;;;;;;;4989869;28;20069;-83
2024/01/02 09:08:15;;;;;;;2.60;2.05;;;;;;;;;;5006070;23;20069;-79
2024/01/02 09:10:46;;;;;;;1.20;1.10;;;;;;;;;;4981850;28;20493;-79
2024/01/02 09:13:13;;;;;;;3.40;1.65;;;;;;;;;;5001682;28;20054;-82
2024/01/02 09:15:41;;;;;;;1.20;1.20;;;;;;;;;;4996611;28;20104;-82
2024/01/02 09:18:09;;;;;;;0.10;0.10;;;;;;;;;;5000879;28;20605;-81
2024/01/02 09:20:42;;;;;;;0.85;0.70;;;;;;;;;;5001847;28;20511;-81
2024/01/02 09:23:12;;;;;;;0.63;0.63;;;;;;;;;;4988565;28;20049;-80
2024/01/02 09:25:45;;;;;;;3.92;0.77;;;;;;;;;;4981023;28;20049;-84
2024/01/02 09:28:17;;;;;;;1.10;0.85;;;;;;;;;;4996082;28;20232;-80
2024/01/02 09:30:48;;;;;;;2.10;1.90;;;;;;;;;;4979783;28;20049;-81
2024/01/02 09:33:17;;;;;;;0.57;0.57;;;;;;;;;;4987536;28;20137;-81
2024/01/02 09:35:45;;;;;;;0.20;0.20;;;;;;;;;;4993023;28;20048;-81
2024/01/02 09:38:15;;;;;;;0.30;0.30;;;;;;;;;;4979663;28;20050;-80
2024/01/02 09:40:46;;;;;;;0.75;0.75;;;;;;;;;;4992538;28;20134;-80
2024/01/02 09:43:17;;;;;;;1.17;1.08;;;;;;;;;;4983126;28;20046;-81
2024/01/02 09:45:47;;;;;;;0.25;0.25;;;;;;;;;;4977846;28;20719;-83
2024/01/02 09:48:18;;;;;;;0.20;0.20;;;;;;;;;;4959326;28;20523;-81
2024/01/02 09:50:50;;;;;;;1.00;0.90;;;;;;;;;;4977988;28;20065;-81
2024/01/02 09:53:52;;;;;;;0.40;0.40;;;;;;;;;;4999091;28;20411;-83
2024/01/02 09:56:36;;;;;;;0.80;0.80;;;;;;;;;;4979079;28;20050;-80
2024/01/02 09:59:25;;;;;;;0.10;0.10;;;;;;;;;;4998156;28;20277;-80
2024/01/02 10:02:16;;;;;;;0.20;0.20;;;;;;;;;;4988141;28;20080;-80
2024/01/02 10:04:54;;;;;;;1.40;1.30;;;;;;;;;;4980029;28;20515;-80
2024/01/02 10:07:31;;;;;;;1.25;0.60;;;;;;;;;;4995942;28;20141;-80
2024/01/02 10:10:08;;;;;;;0.20;0.20;;;;;;;;;;4984979;28;20052;-81
2024/01/02 10:12:36;;;;;;;0.70;0.70;;;;;;;;;;4991340;28;20133;-85
2024/01/02 10:15:18;;;;;;;0.20;0.20;;;;;;;;;;4971347;28;20038;-81
2024/01/02 10:17:58;;;;;;;0.50;0.50;;;;;;;;;;4991413;28;20058;-81
2024/01/02 10:20:29;;;;;;;0.85;0.85;;;;;;;;;;4994031;28;20114;-78
2024/01/02 10:23:06;;;;;;;3.35;1.08;;;;;;;;;;5000008;28;20045;-78
2024/01/02 10:25:34;;;;;;;0.70;0.70;;;;;;;;;;4991028;28;20499;-78
2024/01/02 10:28:04;;;;;;;1.23;1.15;;;;;;;;;;4993205;28;20049;-84
2024/01/02 10:30:53;;;;;;;0.55;0.55;;;;;;;;;;4978751;28;20046;-81
2024/01/02 10:33:24;;;;;;;0.93;0.93;;;;;;;;;;4990611;28;20045;-78
2024/01/02 10:35:52;;;;;;;0.70;0.70;;;;;;;;;;4983934;28;20049;-78
2024/01/02 10:38:27;;;;;;;0.35;0.28;;;;;;;;;;4999986;28;20057;-84
2024/01/02 10:41:11;;;;;;;0.75;0.55;;;;;;;;;;4981578;28;20050;-80
2024/01/02 10:44:06;;;;;;;0.57;0.57;;;;;;;;;;4998539;28;20447;-80
2024/01/02 10:46:43;;;;;;;0.52;0.45;;;;;;;;;;4991144;28;20046;-81
2024/01/02 10:49:23;;;;;;;0.65;0.60;;;;;;;;;;4984784;28;20056;-81
2024/01/02 10:51:54;;;;;;;2.15;1.00;;;;;;;;;;4989380;28;20081;-78
2024/01/02 10:54:35;;;;;;;0.55;0.55;;;;;;;;;;4975573;28;20084;-80
2024/01/02 10:57:07;;;;;;;0.10;0.10;;;;;;;;;;4974473;28;20418;-78
2024/01/02 10:59:47;;;;;;;0.70;0.70;;;;;;;;;;4973096;28;20042;-82
2024/01/02 11:02:33;;;;;;;0.35;0.35;;;;;;;;;;4988669;28;20066;-84
2024/01/02 11:05:11;;;;;;;0.45;0.45;;;;;;;;;;4996364;28;20061;-81
2024/01/02 11:07:41;;;;;;;0.20;0.20;;;;;;;;;;4994963;28;20045;-81
2024/01/02 11:10:12;;;;;;;0.13;0.10;;;;;;;;;;5005491;28;20038;-81
2024/01/02 11:12:50;;;;;;;8.30;1.38;;;;;;;;;;4999385;28;20076;-81
2024/01/02 11:15:22;;;;;;;0.38;0.38;;;;;;;;;;4960578;28;20132;-80
2024/01/02 11:49:38;;;;;;;0.25;0.20;;;;;;;;;;5076485;27;22037;-77
2024/01/02 11:52:11;;;;;;;0.68;0.68;;;;;;;;;;5080157;28;20048;-79
2024/01/02 11:55:01;;;;;;;2.42;1.25;;;;;;;;;;5056125;28;21623;-78
2024/01/02 11:57:35;;;;;;;4.22;0.98;;;;;;;;;;5082039;28;20105;-79
2024/01/02 12:00:06;;;;;;;2.47;1.25;;;;;;;;;;5080166;28;20537;-80
2024/01/02 12:02:49;;;;;;;0.65;0.65;;;;;;;;;;5084497;28;20052;-79
2024/01/02 12:05:22;;;;;;;0.40;0.40;;;;;;;;;;5074329;28;20036;-80
2024/01/02 12:07:53;;;;;;;0.35;0.35;;;;;;;;;;5088125;28;20037;-79
2024/01/02 12:10:25;;;;;;;0.60;0.60;;;;;;;;;;5081589;28;20063;-80
2024/01/02 12:12:54;;;;;;;0.20;0.20;;;;;;;;;;5086027;28;20377;-78
2024/01/02 12:15:36;;;;;;;0.30;0.30;;;;;;;;;;5083697;28;20132;-81
2024/01/02 12:18:04;;;;;;;0.13;0.13;;;;;;;;;;5097661;28;20051;-79
2024/01/02 12:20:47;;;;;;;0.47;0.47;;;;;;;;;;5087268;28;20063;-80
2024/01/02 12:23:14;;;;;;;;;;;;;;;;;;5094487;28;20513;-80
2024/01/02 12:25:43;;;;;;;0.20;0.20;;;;;;;;;;5085868;28;19985;-79
2024/01/02 12:28:12;;;;;;;1.02;1.00;;;;;;;;;;5081241;28;20464;-78
2024/01/02 12:30:43;;;;;;;0.45;0.45;;;;;;;;;;5085326;28;20048;-78
2024/01/02 12:33:18;;;;;;;0.30;0.30;;;;;;;;;;5079886;28;20098;-79
2024/01/02 12:35:47;;;;;;;0.20;0.20;;;;;;;;;;5086360;28;20421;-79
2024/01/02 12:38:16;;;;;;;3.83;1.75;;;;;;;;;;5079418;28;20051;-78
2024/01/02 12:40:45;;;;;;;0.32;0.32;;;;;;;;;;5080876;28;20150;-78
2024/01/02 12:43:16;;;;;;;4.63;1.58;;;;;;;;;;5085149;28;20345;-78
2024/01/02 12:45:45;;;;;;;1.23;1.15;;;;;;;;;;5080391;28;20048;-77
2024/01/02 12:48:18;;;;;;;0.32;0.32;;;;;;;;;;5089479;28;20291;-77
2024/01/02 12:50:49;;;;;;;0.40;0.40;;;;;;;;;;5084074;28;20045;-77
2024/01/02 12:53:19;;;;;;;0.60;0.60;;;;;;;;;;5083729;28;20072;-77
2024/01/02 12:55:51;;;;;;;0.65;0.40;;;;;;;;;;5078111;28;20037;-77
2024/01/02 12:58:19;;;;;;;0.40;0.40;;;;;;;;;;5082873;28;20131;-77
2024/01/02 13:00:47;;;;;;;0.50;0.50;;;;;;;;;;5072901;28;20059;-78
2024/01/02 13:03:17;;;;;;;0.98;0.98;;;;;;;;;;5078085;28;20139;-77
2024/01/02 13:05:45;;;;;;;0.65;0.52;;;;;;;;;;5072250;28;20056;-79
2024/01/02 13:08:21;;;;;;;0.52;0.52;;;;;;;;;;5067068;28;20084;-77
2024/01/02 13:10:50;;;;;;;0.28;0.28;;;;;;;;;;5064469;28;20041;-77
2024/01/02 13:13:19;;;;;;;0.43;0.43;;;;;;;;;;5063852;28;20107;-77
2024/01/02 13:15:53;;;;;;;0.63;0.60;;;;;;;;;;5062309;28;20131;-77
2024/01/02 13:18:21;;;;;;;0.55;0.55;;;;;;;;;;5065596;28;20044;-76
2024/01/02 13:20:51;;;;;;;0.38;0.38;;;;;;;;;;5066604;28;20056;-77
2024/01/02 13:23:19;;;;;;;0.40;0.40;;;;;;;;;;5063526;28;20441;-77
2024/01/02 13:25:48;;;;;;;0.73;0.73;;;;;;;;;;5065784;28;20072;-78
2024/01/02 13:28:20;;;;;;;0.73;0.73;;;;;;;;;;5064652;28;20098;-78
2024/01/02 13:30:50;;;;;;;0.20;0.20;;;;;;;;;;5067464;28;20044;-77
2024/01/02 13:33:20;;;;;;;0.98;0.93;;;;;;;;;;5070207;28;20032;-76
2024/01/02 13:36:07;;;;;;;0.30;0.30;;;;;;;;;;5072079;28;20054;-77
2024/01/02 13:38:41;;;;;;;0.55;0.55;;;;;;;;;;5064907;28;20075;-78
2024/01/02 13:41:09;;;;;;;0.50;0.50;;;;;;;;;;5070226;28;20131;-77
2024/01/02 13:43:37;;;;;;;3.58;1.45;;;;;;;;;;5067494;28;20064;-78
2024/01/02 13:46:12;;;;;;;2.40;1.77;;;;;;;;;;5052934;28;20129;-80
2024/01/02 13:48:40;;;;;;;1.17;1.17;;;;;;;;;;5048168;28;20041;-77
2024/01/02 13:51:08;;;;;;;3.10;1.23;;;;;;;;;;5060308;28;20048;-78
2024/01/02 13:53:55;;;;;;;0.57;0.52;;;;;;;;;;5065404;28;20437;-77
2024/01/02 13:56:23;;;;;;;1.65;1.10;;;;;;;;;;5066420;28;20056;-77
2024/01/02 13:59:05;;;;;;;0.77;0.68;;;;;;;;;;5051252;28;20181;-78
2024/01/02 14:01:41;;;;;;;0.50;0.50;;;;;;;;;;5048302;28;20415;-77
2024/01/02 14:04:21;;;;;;;2.50;1.30;;;;;;;;;;5061434;28;20106;-79
2024/01/02 14:06:49;;;;;;;0.60;0.60;;;;;;;;;;5067134;28;20043;-77
2024/01/02 14:09:17;;;;;;;0.40;0.40;;;;;;;;;;5069286;28;20470;-78
2024/01/02 14:11:57;;;;;;;0.45;0.45;;;;;;;;;;5070526;28;20514;-76
2024/01/02 14:14:43;;;;;;;0.35;0.35;;;;;;;;;;5045657;28;20049;-79
2024/01/02 14:17:15;;;;;;;0.70;0.65;;;;;;;;;;5069354;28;20322;-77
2024/01/02 14:19:45;;;;;;;0.20;0.20;;;;;;;;;;5061076;28;20088;-77
2024/01/02 14:22:22;;;;;;;0.10;0.10;;;;;;;;;;5063245;28;20056;-78
2024/01/02 14:24:56;;;;;;;1.65;0.88;;;;;;;;;;5071348;28;20106;-77
2024/01/02 14:27:28;;;;;;;0.40;0.32;;;;;;;;;;5065659;28;20049;-78
2024/01/02 14:30:08;;;;;;;0.90;0.90;;;;;;;;;;5053425;28;20506;-77
2024/01/02 14:32:49;;;;;;;0.98;0.70;;;;;;;;;;5068278;28;20516;-77
2024/01/02 14:35:19;;;;;;;0.55;0.55;;;;;;;;;;5064904;28;20052;-78
2024/01/02 14:38:16;;;;;;;0.35;0.35;;;;;;;;;;5067861;28;20528;-77
2024/01/02 14:40:46;;;;;;;0.50;0.50;;;;;;;;;;5062417;28;20055;-77
2024/01/02 14:43:29;;;;;;;0.30;0.30;;;;;;;;;;5064292;28;20631;-77
2024/01/02 14:46:06;;;;;;;4.10;1.98;;;;;;;;;;5065424;28;20051;-79
2024/01/02 14:48:49;;;;;;;0.38;0.38;;;;;;;;;;5061244;28;20098;-77
2024/01/02 14:51:42;;;;;;;1.85;1.50;;;;;;;;;;5057222;28;20157;-78
2024/01/02 14:54:22;;;;;;;0.57;0.57;;;;;;;;;;5064015;28;20149;-78
2024/01/02 14:57:05;;;;;;;0.75;0.75;;;;;;;;;;5053354;28;20059;-77
2024/01/02 14:59:46;;;;;;;3.92;3.30;;;;;;;;;;5069799;28;20052;-77
2024/01/02 15:02:23;;;;;;;1.52;1.42;;;;;;;;;;5072176;28;20494;-77
2024/01/02 15:04:50;;;;;;;2.30;2.10;;;;;;;;;;5073030;28;20072;-77
2024/01/02 15:10:40;;;;;;;0.55;0.55;;;;;;;;;;5099301;28;20044;-81
2024/01/02 15:13:49;;;;;;;4.47;2.75;;;;;;;;;;5088618;28;20066;-81
2024/01/02 15:16:34;;;;;;;2.97;2.47;;;;;;;;;;5088163;28;20498;-80
2024/01/02 15:19:10;;;;;;;1.05;1.05;;;;;;;;;;5072289;28;20068;-81
2024/01/02 15:21:49;;;;;;;1.13;0.98;;;;;;;;;;5054505;28;20051;-80
2024/01/02 15:24:33;;;;;;;2.53;1.17;;;;;;;;;;5069566;28;20135;-80
2024/01/02 15:27:10;;;;;;;0.75;0.75;;;;;;;;;;5068399;28;20048;-81
2024/01/02 15:30:13;;;;;;;;;;;;;;;;;;;;;
2024/01/02 15:33:16;;;;;;;1.23;0.80;;;;;;;;;;5068603;28;20382;-80
2024/01/02 15:36:07;;;;;;;2.35;2.15;;;;;;;;;;5068015;28;20071;-81
2024/01/02 15:39:07;;;;;;;1.85;1.05;;;;;;;;;;5061841;28;20442;-80
2024/01/02 15:42:08;;;;;;;;;;;;;;;;;;;;;
2024/01/02 15:44:57;;;;;;;1.85;1.55;;;;;;;;;;5076662;28;20080;-81